Brooktondale, New York
Current Conditions -  °F | °C
As of 7:56 PM on Wednesday 22 Oct 2014 (Local Time) from KITH Reporting Station
Overcast Overcast  
Wind Chill: 40°   Ceiling: 1000
Heat Index: 46°   Visibility: 10mi
Dew Point: 43°   Wind: 12mph
Humidity: 90%   Direction: 350°N
Pressure: 30.09"   Gusts: NA
Location:  42.38°N, 76.39°W
Report Text: KITH 222356Z 35010KT 10SM OVC010 08/06 A3009 RMK AO2 58005 T00770061 10100 20077 SLP197
Loading
Personal Weather Stations






























Interactive Weather Map
Tropical Storm Tracking
New forecast layout! Learn more

10-Day Weather Forecast

Advertisements
Track Severe Weather on mobile